Time;durP1;ratioP1;P1;durP2;ratioP2;P2;SDS_P1;SDS_P2;PMS_P1;PMS_P2;Temp;Humidity;BMP_temperature;BMP_pressure;BME280_temperature;BME280_humidity;BME280_pressure;Samples;Min_cycle;Max_cycle;Signal;HPM_P1;HPM_P2
2024/01/20 00:01:47;;;;;;;5.70;2.60;;;;;;;;;;5257376;22;20073;-80
2024/01/20 00:03:49;;;;;;;7.47;2.38;;;;;;;;;;5257450;22;20018;-80
2024/01/20 00:05:50;;;;;;;11.02;2.42;;;;;;;;;;5204990;22;20051;-80
2024/01/20 00:07:53;;;;;;;8.70;2.20;;;;;;;;;;5257236;22;20014;-80
2024/01/20 00:09:54;;;;;;;6.93;2.40;;;;;;;;;;5232511;22;20011;-81
2024/01/20 00:11:58;;;;;;;8.15;2.53;;;;;;;;;;5233760;22;20015;-81
2024/01/20 00:14:12;;;;;;;5.03;2.28;;;;;;;;;;5208291;22;20633;-81
2024/01/20 00:16:15;;;;;;;11.93;2.58;;;;;;;;;;5233423;22;20029;-81
2024/01/20 00:18:16;;;;;;;9.73;2.67;;;;;;;;;;5233442;22;20067;-81
2024/01/20 00:20:19;;;;;;;10.73;2.30;;;;;;;;;;5259889;22;20019;-81
2024/01/20 00:22:30;;;;;;;11.05;2.90;;;;;;;;;;5233283;22;20012;-81
2024/01/20 00:24:32;;;;;;;9.65;3.15;;;;;;;;;;5208827;22;20020;-80
2024/01/20 00:26:36;;;;;;;13.68;3.22;;;;;;;;;;5261090;22;20072;-80
2024/01/20 00:28:38;;;;;;;5.68;2.60;;;;;;;;;;5261608;22;20018;-81
2024/01/20 00:30:56;;;;;;;10.27;3.13;;;;;;;;;;5261618;22;20018;-80
2024/01/20 00:33:00;;;;;;;8.80;2.85;;;;;;;;;;5213024;22;20012;-80
2024/01/20 00:35:03;;;;;;;11.32;3.65;;;;;;;;;;5211396;22;20016;-81
2024/01/20 00:37:05;;;;;;;10.73;3.47;;;;;;;;;;5262962;22;20023;-81
2024/01/20 00:39:10;;;;;;;7.20;2.67;;;;;;;;;;5264122;22;20019;-80
2024/01/20 00:41:19;;;;;;;7.05;2.75;;;;;;;;;;5236899;22;20019;-80
2024/01/20 00:43:21;;;;;;;;;;;;;;;;;;5237491;22;20405;-80
2024/01/20 00:45:24;;;;;;;6.90;3.00;;;;;;;;;;5263764;22;20255;-80
2024/01/20 00:47:34;;;;;;;8.73;3.58;;;;;;;;;;5234951;22;20027;-80
2024/01/20 00:49:36;;;;;;;7.68;3.10;;;;;;;;;;5262321;22;20014;-80
2024/01/20 00:51:43;;;;;;;9.02;4.10;;;;;;;;;;5235079;22;20019;-80
2024/01/20 00:53:48;;;;;;;8.15;3.90;;;;;;;;;;5260378;22;20022;-80
2024/01/20 00:56:02;;;;;;;7.05;3.15;;;;;;;;;;5262026;22;20011;-80
2024/01/20 00:58:04;;;;;;;11.02;3.78;;;;;;;;;;5262063;22;20025;-81
2024/01/20 01:00:08;;;;;;;13.65;3.67;;;;;;;;;;5262746;22;20011;-81
2024/01/20 01:02:09;;;;;;;6.80;3.47;;;;;;;;;;5261727;22;20030;-81
2024/01/20 01:04:12;;;;;;;7.90;3.30;;;;;;;;;;5262117;22;20515;-81
2024/01/20 01:06:16;;;;;;;8.13;3.85;;;;;;;;;;5261850;22;20372;-81
2024/01/20 01:08:20;;;;;;;21.55;3.70;;;;;;;;;;5262492;22;20015;-81
2024/01/20 01:10:23;;;;;;;9.57;4.18;;;;;;;;;;5209520;22;20019;-81
2024/01/20 01:12:35;;;;;;;12.48;3.67;;;;;;;;;;5263364;22;20014;-81
2024/01/20 01:14:41;;;;;;;13.50;4.25;;;;;;;;;;5261860;22;20019;-81
2024/01/20 01:16:49;;;;;;;15.00;4.40;;;;;;;;;;5236162;22;20019;-81
2024/01/20 01:18:52;;;;;;;9.68;3.83;;;;;;;;;;5189299;22;20024;-81
2024/01/20 01:20:56;;;;;;;8.25;4.07;;;;;;;;;;5211470;22;20049;-82
2024/01/20 01:22:57;;;;;;;7.70;3.63;;;;;;;;;;5209705;22;20555;-81
2024/01/20 01:25:02;;;;;;;8.65;4.45;;;;;;;;;;5211654;22;20024;-81
2024/01/20 01:27:03;;;;;;;19.20;4.60;;;;;;;;;;5182638;23;20027;-81
2024/01/20 01:29:06;;;;;;;15.70;4.15;;;;;;;;;;5209371;22;20497;-82
2024/01/20 01:31:14;;;;;;;9.52;3.92;;;;;;;;;;5184003;23;20016;-82
2024/01/20 01:33:20;;;;;;;10.95;3.65;;;;;;;;;;5210279;22;20016;-81
2024/01/20 01:35:28;;;;;;;12.60;4.82;;;;;;;;;;5209550;22;20016;-81
2024/01/20 01:37:32;;;;;;;8.50;4.00;;;;;;;;;;5209523;22;20019;-81
2024/01/20 01:39:44;;;;;;;13.75;3.63;;;;;;;;;;5185132;22;20024;-81
2024/01/20 01:41:51;;;;;;;11.57;4.20;;;;;;;;;;5209270;22;20014;-81
2024/01/20 01:43:58;;;;;;;6.63;3.83;;;;;;;;;;5209626;22;20020;-81
2024/01/20 01:46:01;;;;;;;16.13;5.75;;;;;;;;;;5209721;22;20048;-81
2024/01/20 01:48:05;;;;;;;13.30;4.72;;;;;;;;;;5183526;23;20027;-81
2024/01/20 01:50:11;;;;;;;8.40;3.72;;;;;;;;;;5206356;22;20039;-81
2024/01/20 01:52:21;;;;;;;19.63;5.40;;;;;;;;;;5209079;22;20024;-82
2024/01/20 01:54:24;;;;;;;14.07;4.75;;;;;;;;;;5208855;22;20462;-81
2024/01/20 01:56:36;;;;;;;10.50;3.90;;;;;;;;;;5209176;22;20070;-81
2024/01/20 01:58:40;;;;;;;13.55;4.90;;;;;;;;;;5209516;22;20086;-82
2024/01/20 02:00:44;;;;;;;10.63;4.00;;;;;;;;;;5209632;22;20026;-81
2024/01/20 02:02:50;;;;;;;11.77;4.30;;;;;;;;;;5208749;22;20051;-82
2024/01/20 02:05:02;;;;;;;11.00;4.45;;;;;;;;;;5209838;22;20020;-81
2024/01/20 02:07:05;;;;;;;14.45;3.55;;;;;;;;;;5183741;23;20020;-81
2024/01/20 02:09:15;;;;;;;8.93;4.13;;;;;;;;;;5183981;23;20032;-81
2024/01/20 02:11:38;;;;;;;8.82;4.07;;;;;;;;;;5209234;22;20046;-81
2024/01/20 02:13:41;;;;;;;8.90;3.80;;;;;;;;;;5209886;22;20012;-81
2024/01/20 02:15:45;;;;;;;8.60;3.90;;;;;;;;;;5208786;22;20470;-81
2024/01/20 02:17:52;;;;;;;9.40;3.95;;;;;;;;;;5189301;22;20063;-81
2024/01/20 02:19:59;;;;;;;12.18;4.28;;;;;;;;;;5231705;22;20050;-82
2024/01/20 02:22:09;;;;;;;8.10;4.20;;;;;;;;;;5233461;22;20021;-82
2024/01/20 02:24:17;;;;;;;12.18;3.78;;;;;;;;;;5233304;22;20015;-82
2024/01/20 02:26:24;;;;;;;15.57;4.90;;;;;;;;;;5232219;22;20011;-82
2024/01/20 02:28:32;;;;;;;10.60;4.30;;;;;;;;;;5232110;22;20072;-82
2024/01/20 02:30:38;;;;;;;12.32;4.25;;;;;;;;;;5257737;22;20022;-81
2024/01/20 02:32:42;;;;;;;7.05;4.20;;;;;;;;;;5258705;22;20019;-81
2024/01/20 02:34:45;;;;;;;13.80;4.28;;;;;;;;;;5259093;22;20337;-81
2024/01/20 02:36:47;;;;;;;13.48;4.40;;;;;;;;;;5231904;22;20016;-81
2024/01/20 02:38:48;;;;;;;13.27;4.43;;;;;;;;;;5206862;22;20019;-81
2024/01/20 02:40:53;;;;;;;12.93;4.55;;;;;;;;;;5260597;22;20027;-81
2024/01/20 02:43:03;;;;;;;10.32;4.53;;;;;;;;;;5208996;22;20030;-81
2024/01/20 02:45:04;;;;;;;19.73;4.38;;;;;;;;;;5207795;22;20094;-81
2024/01/20 02:47:06;;;;;;;8.13;3.63;;;;;;;;;;5260672;22;20019;-81
2024/01/20 02:49:08;;;;;;;10.82;4.35;;;;;;;;;;5238817;22;20015;-80
2024/01/20 02:51:13;;;;;;;9.88;4.68;;;;;;;;;;5267058;22;20078;-81
2024/01/20 02:53:19;;;;;;;10.43;3.67;;;;;;;;;;5264051;22;20339;-81
2024/01/20 02:55:21;;;;;;;10.98;4.10;;;;;;;;;;5236909;22;20043;-81
2024/01/20 02:57:24;;;;;;;14.45;4.40;;;;;;;;;;5237553;22;20050;-82
2024/01/20 02:59:27;;;;;;;12.30;4.97;;;;;;;;;;5263373;22;20011;-81
2024/01/20 03:01:31;;;;;;;9.93;4.43;;;;;;;;;;5236227;22;20020;-82
2024/01/20 03:03:33;;;;;;;18.02;6.07;;;;;;;;;;5235255;22;20019;-82
2024/01/20 03:05:34;;;;;;;11.88;5.35;;;;;;;;;;5207721;22;20023;-82
2024/01/20 03:07:38;;;;;;;15.35;5.97;;;;;;;;;;5234061;22;20012;-81
2024/01/20 03:09:41;;;;;;;12.82;5.68;;;;;;;;;;5233442;22;20067;-82
2024/01/20 03:11:49;;;;;;;16.63;5.88;;;;;;;;;;5233161;22;20027;-82
2024/01/20 03:13:52;;;;;;;12.80;5.80;;;;;;;;;;5207718;22;20094;-81
2024/01/20 03:15:54;;;;;;;10.15;4.95;;;;;;;;;;5207896;22;20079;-82
2024/01/20 03:17:55;;;;;;;11.50;5.95;;;;;;;;;;5232219;22;20063;-82
2024/01/20 03:19:57;;;;;;;11.18;6.25;;;;;;;;;;5231892;22;20054;-81
2024/01/20 03:21:58;;;;;;;20.90;6.43;;;;;;;;;;5231392;22;20024;-81
2024/01/20 03:24:03;;;;;;;21.13;7.20;;;;;;;;;;5235589;22;20027;-81
2024/01/20 03:26:08;;;;;;;14.73;6.03;;;;;;;;;;5262150;22;20022;-81
2024/01/20 03:28:11;;;;;;;14.02;7.60;;;;;;;;;;5209584;22;20026;-81
2024/01/20 03:30:12;;;;;;;15.88;6.88;;;;;;;;;;5240814;22;20021;-82
2024/01/20 03:32:14;;;;;;;15.95;6.55;;;;;;;;;;5215398;22;20020;-80
2024/01/20 03:34:22;;;;;;;10.35;6.43;;;;;;;;;;5213051;22;20023;-81
2024/01/20 03:36:25;;;;;;;19.50;6.73;;;;;;;;;;5238279;22;20003;-80
2024/01/20 03:38:31;;;;;;;14.43;6.78;;;;;;;;;;5241163;22;20044;-81
2024/01/20 03:40:39;;;;;;;17.58;7.22;;;;;;;;;;5266142;22;20022;-82
2024/01/20 03:42:45;;;;;;;13.85;7.22;;;;;;;;;;5215945;22;20026;-82
2024/01/20 03:44:51;;;;;;;20.05;8.73;;;;;;;;;;5241427;22;20062;-82
2024/01/20 03:47:02;;;;;;;16.42;7.80;;;;;;;;;;5267040;22;20055;-82
2024/01/20 03:49:04;;;;;;;15.95;7.95;;;;;;;;;;5239233;22;20402;-82
2024/01/20 03:51:11;;;;;;;20.55;8.38;;;;;;;;;;5240838;22;20065;-82
2024/01/20 03:53:25;;;;;;;16.35;8.00;;;;;;;;;;5265903;22;20042;-82
2024/01/20 03:55:33;;;;;;;17.17;7.70;;;;;;;;;;5264926;22;20033;-82
2024/01/20 03:57:44;;;;;;;15.68;7.85;;;;;;;;;;5237951;22;20057;-81
2024/01/20 03:59:56;;;;;;;18.80;8.55;;;;;;;;;;5264672;22;20030;-81
2024/01/20 04:02:05;;;;;;;16.80;7.63;;;;;;;;;;5237866;22;20046;-81
2024/01/20 04:04:07;;;;;;;17.17;8.37;;;;;;;;;;5211925;22;20074;-81
2024/01/20 04:06:15;;;;;;;18.23;8.85;;;;;;;;;;5211938;22;20012;-81
2024/01/20 04:08:22;;;;;;;16.80;7.93;;;;;;;;;;5236929;22;20046;-82
2024/01/20 04:10:33;;;;;;;19.42;9.05;;;;;;;;;;5264656;22;20019;-82
2024/01/20 04:12:45;;;;;;;22.83;8.95;;;;;;;;;;5239169;22;20015;-82
2024/01/20 04:15:02;;;;;;;20.08;8.77;;;;;;;;;;5212176;22;20016;-81
2024/01/20 04:17:03;;;;;;;24.95;9.68;;;;;;;;;;5237913;22;20003;-81
2024/01/20 04:19:12;;;;;;;18.83;7.88;;;;;;;;;;5264046;22;20048;-81
2024/01/20 04:21:22;;;;;;;26.17;8.75;;;;;;;;;;5186945;22;20062;-81
2024/01/20 04:23:40;;;;;;;20.15;9.75;;;;;;;;;;5238690;22;20049;-81
2024/01/20 04:25:53;;;;;;;17.65;9.27;;;;;;;;;;5238584;22;20023;-81
2024/01/20 04:28:08;;;;;;;27.75;10.88;;;;;;;;;;5264921;22;20068;-81
2024/01/20 04:30:10;;;;;;;18.55;10.43;;;;;;;;;;5265265;22;20019;-81
2024/01/20 04:32:12;;;;;;;18.38;9.82;;;;;;;;;;5212787;22;20020;-81
2024/01/20 04:34:23;;;;;;;20.98;9.82;;;;;;;;;;5236094;22;20039;-82
2024/01/20 04:36:31;;;;;;;18.05;10.13;;;;;;;;;;5265305;22;20026;-82
2024/01/20 04:38:48;;;;;;;24.95;10.70;;;;;;;;;;5238737;22;20019;-81
2024/01/20 04:41:02;;;;;;;22.77;9.98;;;;;;;;;;5264788;22;20018;-81
2024/01/20 04:43:03;;;;;;;16.17;9.50;;;;;;;;;;5237835;22;20092;-81
2024/01/20 04:45:13;;;;;;;13.90;8.18;;;;;;;;;;5211807;22;20016;-81
2024/01/20 04:49:57;;;;;;;24.40;10.00;;;;;;;;;;5265039;22;20019;-81
2024/01/20 04:52:04;;;;;;;21.13;10.82;;;;;;;;;;5264416;22;20019;-82
2024/01/20 04:54:09;;;;;;;22.83;9.45;;;;;;;;;;5236825;22;20077;-82
2024/01/20 04:56:24;;;;;;;16.92;9.20;;;;;;;;;;5211958;22;20047;-82
2024/01/20 04:58:47;;;;;;;17.25;9.27;;;;;;;;;;5211992;22;20145;-82
2024/01/20 05:00:57;;;;;;;23.75;9.02;;;;;;;;;;5238094;22;20019;-81
2024/01/20 05:03:07;;;;;;;21.15;9.60;;;;;;;;;;5212831;22;20067;-81
2024/01/20 05:05:14;;;;;;;24.30;10.40;;;;;;;;;;5211884;22;20023;-81
2024/01/20 05:07:27;;;;;;;25.15;10.32;;;;;;;;;;5264233;22;20019;-82
2024/01/20 05:09:40;;;;;;;18.23;9.50;;;;;;;;;;5237077;22;20015;-81
2024/01/20 05:11:44;;;;;;;21.92;9.52;;;;;;;;;;5238424;22;20038;-82
2024/01/20 05:13:50;;;;;;;21.75;9.45;;;;;;;;;;5236866;22;20023;-81
2024/01/20 05:16:00;;;;;;;25.17;10.15;;;;;;;;;;5238381;22;20015;-82
2024/01/20 05:18:03;;;;;;;24.65;9.93;;;;;;;;;;5204492;22;20036;-82
2024/01/20 05:20:08;;;;;;;18.95;10.10;;;;;;;;;;5212273;22;20430;-81
2024/01/20 05:22:18;;;;;;;20.77;10.52;;;;;;;;;;5186438;23;20023;-81
2024/01/20 05:24:31;;;;;;;20.00;10.40;;;;;;;;;;5213215;22;20067;-81
2024/01/20 05:26:43;;;;;;;27.25;11.23;;;;;;;;;;5212184;22;20047;-81
2024/01/20 05:28:49;;;;;;;22.98;10.73;;;;;;;;;;5210504;22;20022;-82
2024/01/20 05:30:55;;;;;;;21.10;10.60;;;;;;;;;;5211881;22;20020;-82
2024/01/20 05:33:06;;;;;;;24.08;11.32;;;;;;;;;;5210588;22;20016;-82
2024/01/20 05:35:18;;;;;;;20.05;10.35;;;;;;;;;;5186040;22;20027;-81
2024/01/20 05:37:21;;;;;;;21.80;10.73;;;;;;;;;;5211767;22;20016;-81
2024/01/20 05:39:34;;;;;;;25.23;12.18;;;;;;;;;;5211195;22;20516;-82
2024/01/20 05:41:47;;;;;;;29.83;12.00;;;;;;;;;;5210196;22;20046;-82
2024/01/20 05:43:51;;;;;;;21.40;10.70;;;;;;;;;;5186271;23;20439;-81
2024/01/20 05:46:09;;;;;;;24.52;11.38;;;;;;;;;;5186899;22;20072;-81
2024/01/20 05:48:16;;;;;;;24.98;11.68;;;;;;;;;;5212773;22;20015;-81
2024/01/20 05:50:22;;;;;;;22.98;11.15;;;;;;;;;;5213384;22;20043;-82
2024/01/20 05:52:40;;;;;;;24.35;12.07;;;;;;;;;;5211845;22;20020;-81
2024/01/20 05:54:43;;;;;;;25.27;11.07;;;;;;;;;;5212420;22;20024;-81
2024/01/20 05:56:46;;;;;;;20.25;11.65;;;;;;;;;;5214840;22;20034;-81
2024/01/20 05:58:57;;;;;;;26.02;11.52;;;;;;;;;;5215978;22;20043;-80
2024/01/20 06:01:01;;;;;;;26.73;11.85;;;;;;;;;;5217155;22;20000;-80
2024/01/20 06:03:10;;;;;;;25.27;10.95;;;;;;;;;;5217647;22;20010;-80
2024/01/20 06:05:26;;;;;;;26.67;11.60;;;;;;;;;;5217892;22;20010;-81
2024/01/20 06:07:35;;;;;;;23.42;10.27;;;;;;;;;;5214770;22;20027;-82
2024/01/20 06:09:47;;;;;;;25.90;11.48;;;;;;;;;;5188544;22;20000;-81
2024/01/20 06:11:55;;;;;;;24.17;12.15;;;;;;;;;;5214279;22;20015;-81
2024/01/20 06:14:08;;;;;;;22.55;10.10;;;;;;;;;;5188185;22;20019;-81
2024/01/20 06:16:21;;;;;;;29.20;12.63;;;;;;;;;;5214208;22;20019;-81
2024/01/20 06:18:22;;;;;;;24.27;10.93;;;;;;;;;;5210637;22;20075;-81
2024/01/20 06:20:37;;;;;;;30.00;12.23;;;;;;;;;;5212660;22;20019;-81
2024/01/20 06:22:44;;;;;;;26.37;11.57;;;;;;;;;;5214395;22;20059;-81
2024/01/20 06:24:51;;;;;;;27.55;11.65;;;;;;;;;;5213812;22;20657;-81
2024/01/20 06:26:56;;;;;;;27.60;10.90;;;;;;;;;;5212682;22;20058;-81
2024/01/20 06:29:11;;;;;;;24.15;10.25;;;;;;;;;;5185966;23;20064;-81
2024/01/20 06:31:28;;;;;;;26.00;10.88;;;;;;;;;;5214358;22;19999;-81
2024/01/20 06:33:38;;;;;;;23.30;10.18;;;;;;;;;;5212721;22;20022;-81
2024/01/20 06:35:52;;;;;;;29.65;12.27;;;;;;;;;;5213526;22;20026;-81
2024/01/20 06:38:00;;;;;;;25.60;10.73;;;;;;;;;;5213737;22;20072;-81
2024/01/20 06:40:10;;;;;;;22.17;10.80;;;;;;;;;;5213202;22;20081;-81
2024/01/20 06:42:28;;;;;;;28.30;11.40;;;;;;;;;;5212517;22;20016;-81
2024/01/20 06:44:44;;;;;;;28.98;11.73;;;;;;;;;;5212513;22;20477;-81
2024/01/20 06:47:09;;;;;;;27.73;11.18;;;;;;;;;;5210945;22;20046;-81
2024/01/20 06:49:17;;;;;;;26.70;11.38;;;;;;;;;;5209091;22;20019;-81
2024/01/20 06:51:27;;;;;;;26.50;10.98;;;;;;;;;;5186170;22;20019;-81
2024/01/20 06:53:58;;;;;;;28.67;11.95;;;;;;;;;;5211108;22;20046;-81
2024/01/20 06:56:00;;;;;;;25.75;11.05;;;;;;;;;;5210246;22;20024;-81
2024/01/20 06:58:03;;;;;;;34.25;12.65;;;;;;;;;;5185050;23;20039;-81
2024/01/20 07:00:08;;;;;;;27.83;11.30;;;;;;;;;;5212182;22;20015;-81
2024/01/20 07:02:13;;;;;;;32.00;10.88;;;;;;;;;;5185956;22;20027;-81
2024/01/20 07:04:48;;;;;;;24.83;11.07;;;;;;;;;;5211701;22;20022;-81
2024/01/20 07:07:01;;;;;;;28.50;12.38;;;;;;;;;;5211358;22;20016;-81
2024/01/20 07:09:08;;;;;;;28.50;11.70;;;;;;;;;;5212142;22;20015;-81
2024/01/20 07:11:15;;;;;;;23.85;10.55;;;;;;;;;;5208258;22;20027;-81
2024/01/20 07:13:32;;;;;;;25.52;11.10;;;;;;;;;;5210971;22;20047;-81
2024/01/20 07:15:45;;;;;;;23.08;11.25;;;;;;;;;;5186368;22;20020;-81
2024/01/20 07:17:48;;;;;;;25.98;9.55;;;;;;;;;;5212069;22;20023;-81
2024/01/20 07:20:20;;;;;;;26.45;10.60;;;;;;;;;;5210375;22;20012;-81
2024/01/20 07:22:25;;;;;;;26.02;10.20;;;;;;;;;;5210901;22;20019;-81
2024/01/20 07:24:31;;;;;;;26.27;11.40;;;;;;;;;;5187085;22;20016;-81
2024/01/20 07:26:38;;;;;;;26.20;11.35;;;;;;;;;;5213485;22;20046;-81
2024/01/20 07:28:49;;;;;;;29.77;11.85;;;;;;;;;;5212315;22;20020;-81
2024/01/20 07:30:54;;;;;;;38.35;12.57;;;;;;;;;;5211360;22;20020;-81
2024/01/20 07:33:00;;;;;;;29.92;11.57;;;;;;;;;;5212425;22;20041;-82
2024/01/20 07:35:11;;;;;;;29.90;11.90;;;;;;;;;;5188669;22;20023;-81
2024/01/20 07:37:20;;;;;;;28.35;10.88;;;;;;;;;;5213744;22;20025;-81
2024/01/20 07:39:24;;;;;;;29.42;11.57;;;;;;;;;;5187112;23;20054;-81
2024/01/20 07:41:32;;;;;;;31.70;13.25;;;;;;;;;;5211813;22;20109;-81
2024/01/20 07:43:41;;;;;;;29.90;12.90;;;;;;;;;;5213431;22;20019;-81
2024/01/20 07:45:54;;;;;;;26.55;10.95;;;;;;;;;;5212294;22;20035;-81
2024/01/20 07:48:06;;;;;;;30.17;11.27;;;;;;;;;;5185237;22;20047;-81
2024/01/20 07:50:27;;;;;;;30.42;11.60;;;;;;;;;;5186615;22;20183;-81
2024/01/20 07:52:37;;;;;;;30.88;13.48;;;;;;;;;;5212104;22;20016;-81
2024/01/20 07:54:41;;;;;;;27.63;9.93;;;;;;;;;;5211208;22;20046;-81
2024/01/20 07:56:46;;;;;;;26.65;10.52;;;;;;;;;;5212649;22;20020;-81
2024/01/20 07:58:57;;;;;;;29.75;11.65;;;;;;;;;;5212984;22;20070;-81
2024/01/20 08:01:07;;;;;;;25.38;10.48;;;;;;;;;;5213494;22;20023;-81
2024/01/20 08:03:12;;;;;;;26.00;10.75;;;;;;;;;;5214143;22;20027;-81
2024/01/20 08:05:21;;;;;;;26.10;11.25;;;;;;;;;;5188361;22;20016;-81
2024/01/20 08:07:35;;;;;;;28.48;11.65;;;;;;;;;;5188134;23;20024;-81
2024/01/20 08:09:55;;;;;;;33.22;12.60;;;;;;;;;;5188947;22;20374;-81
2024/01/20 08:12:11;;;;;;;25.48;11.27;;;;;;;;;;5214935;22;20016;-81
2024/01/20 08:14:22;;;;;;;30.17;12.10;;;;;;;;;;5188037;22;20012;-81
2024/01/20 08:16:28;;;;;;;30.00;12.05;;;;;;;;;;5187783;23;20027;-81
2024/01/20 08:18:32;;;;;;;;;;;;;;;;;;5239287;22;20042;-81
2024/01/20 08:20:36;;;;;;;24.48;10.65;;;;;;;;;;5238056;22;20357;-81
2024/01/20 08:22:40;;;;;;;30.52;11.10;;;;;;;;;;5238147;22;20046;-82
2024/01/20 08:24:56;;;;;;;30.83;12.43;;;;;;;;;;5238046;22;20023;-82
2024/01/20 08:27:09;;;;;;;25.65;12.13;;;;;;;;;;5262675;22;20022;-82
2024/01/20 08:29:17;;;;;;;28.17;11.13;;;;;;;;;;5239413;22;20019;-82
2024/01/20 08:31:21;;;;;;;29.55;12.75;;;;;;;;;;5237829;22;20022;-81
2024/01/20 08:33:33;;;;;;;37.40;12.73;;;;;;;;;;5237906;22;20070;-81
2024/01/20 08:35:35;;;;;;;32.10;12.68;;;;;;;;;;5211784;22;20016;-80
2024/01/20 08:38:08;;;;;;;33.95;13.18;;;;;;;;;;5213139;22;20020;-80
2024/01/20 08:40:14;;;;;;;33.38;11.40;;;;;;;;;;5238450;22;20021;-80
2024/01/20 08:42:25;;;;;;;31.83;12.93;;;;;;;;;;5263927;22;20019;-80
2024/01/20 08:44:30;;;;;;;30.50;14.43;;;;;;;;;;5264926;22;20011;-80
2024/01/20 08:46:33;;;;;;;36.08;12.35;;;;;;;;;;5264213;22;20024;-81
2024/01/20 08:48:49;;;;;;;37.00;13.63;;;;;;;;;;5265479;22;20064;-81
2024/01/20 08:51:02;;;;;;;32.88;12.05;;;;;;;;;;5239282;22;20091;-81
2024/01/20 08:53:15;;;;;;;34.10;13.27;;;;;;;;;;5238753;22;20026;-81
2024/01/20 08:55:29;;;;;;;28.20;12.82;;;;;;;;;;5265366;22;20322;-82
2024/01/20 08:57:36;;;;;;;32.38;12.82;;;;;;;;;;5265573;22;20018;-82
2024/01/20 08:59:37;;;;;;;31.00;12.07;;;;;;;;;;5264676;22;20009;-82
2024/01/20 09:01:42;;;;;;;26.83;11.00;;;;;;;;;;5237856;22;20030;-81
2024/01/20 09:03:43;;;;;;;29.67;13.00;;;;;;;;;;5265227;22;20021;-81
2024/01/20 09:06:08;;;;;;;31.90;13.68;;;;;;;;;;5239150;22;20022;-81
2024/01/20 09:08:11;;;;;;;31.73;11.38;;;;;;;;;;5242232;22;20000;-82
2024/01/20 09:10:38;;;;;;;29.45;10.23;;;;;;;;;;5267959;22;20006;-81
2024/01/20 09:12:44;;;;;;;26.70;10.93;;;;;;;;;;5241426;22;20003;-81
2024/01/20 09:14:46;;;;;;;30.25;13.23;;;;;;;;;;5216273;22;20027;-81
2024/01/20 09:16:54;;;;;;;34.05;14.05;;;;;;;;;;5240316;22;20011;-81
2024/01/20 09:19:05;;;;;;;30.95;12.95;;;;;;;;;;5214821;22;20016;-81
2024/01/20 09:21:20;;;;;;;45.55;13.95;;;;;;;;;;5239650;22;19999;-81
2024/01/20 09:23:32;;;;;;;32.55;13.05;;;;;;;;;;5238816;22;20015;-81
2024/01/20 09:25:38;;;;;;;27.15;10.02;;;;;;;;;;5213914;22;20022;-81
2024/01/20 09:27:57;;;;;;;28.92;13.00;;;;;;;;;;5213491;22;20046;-81
2024/01/20 09:30:00;;;;;;;32.85;11.90;;;;;;;;;;5212329;22;20050;-81
2024/01/20 09:32:07;;;;;;;42.00;12.77;;;;;;;;;;5237398;22;20027;-81
2024/01/20 09:34:14;;;;;;;29.83;12.25;;;;;;;;;;5265460;22;20057;-81
2024/01/20 09:36:33;;;;;;;32.50;13.63;;;;;;;;;;5265204;22;20410;-82
2024/01/20 09:38:49;;;;;;;34.75;12.85;;;;;;;;;;5239111;22;20019;-81
2024/01/20 09:40:59;;;;;;;33.45;12.40;;;;;;;;;;5238324;22;20015;-82
2024/01/20 09:43:05;;;;;;;31.30;12.23;;;;;;;;;;5239070;22;20022;-81
2024/01/20 09:45:16;;;;;;;33.83;14.13;;;;;;;;;;5212557;22;20142;-81
2024/01/20 09:47:34;;;;;;;32.17;12.05;;;;;;;;;;5212431;22;20016;-81
2024/01/20 09:49:43;;;;;;;25.27;9.93;;;;;;;;;;5265799;22;20066;-81
2024/01/20 09:51:55;;;;;;;30.02;11.27;;;;;;;;;;5238111;22;20045;-81
2024/01/20 09:53:59;;;;;;;29.23;13.00;;;;;;;;;;5237952;22;20098;-79
2024/01/20 09:56:07;;;;;;;29.00;11.38;;;;;;;;;;5237107;22;20473;-81
2024/01/20 09:58:12;;;;;;;30.95;11.80;;;;;;;;;;5210496;22;20041;-82
2024/01/20 10:00:17;;;;;;;26.92;11.60;;;;;;;;;;5263774;22;20022;-81
2024/01/20 10:02:22;;;;;;;28.30;12.07;;;;;;;;;;5237173;22;20544;-81
2024/01/20 10:04:33;;;;;;;28.20;11.18;;;;;;;;;;5210383;22;20020;-81
2024/01/20 10:06:36;;;;;;;28.25;11.85;;;;;;;;;;5262784;22;20015;-82
2024/01/20 10:08:54;;;;;;;30.70;12.30;;;;;;;;;;5235017;22;20023;-81
2024/01/20 10:11:05;;;;;;;28.23;11.50;;;;;;;;;;5261450;22;20044;-82
2024/01/20 10:13:13;;;;;;;29.42;11.18;;;;;;;;;;5234004;22;20015;-82
2024/01/20 10:15:26;;;;;;;32.80;12.35;;;;;;;;;;5262239;22;20022;-82
2024/01/20 10:17:27;;;;;;;27.45;10.80;;;;;;;;;;5234870;22;20016;-82
2024/01/20 10:19:30;;;;;;;26.65;10.95;;;;;;;;;;5232973;22;20015;-82
2024/01/20 10:21:40;;;;;;;23.42;11.02;;;;;;;;;;5234662;22;20027;-82
2024/01/20 10:23:44;;;;;;;30.38;11.52;;;;;;;;;;5261540;22;20070;-82
2024/01/20 10:25:49;;;;;;;27.25;10.65;;;;;;;;;;5209165;22;20019;-82
2024/01/20 10:27:50;;;;;;;26.55;10.18;;;;;;;;;;5208859;22;20079;-82
2024/01/20 10:29:57;;;;;;;28.42;11.02;;;;;;;;;;5261687;22;20025;-82
2024/01/20 10:32:00;;;;;;;28.00;11.23;;;;;;;;;;5260777;22;20042;-82
2024/01/20 10:34:07;;;;;;;23.05;10.00;;;;;;;;;;5208406;22;20020;-82
2024/01/20 10:36:16;;;;;;;26.52;10.48;;;;;;;;;;5233530;22;20015;-82
2024/01/20 10:38:25;;;;;;;26.08;10.10;;;;;;;;;;5208435;22;20026;-81
2024/01/20 10:40:30;;;;;;;23.30;10.80;;;;;;;;;;5232603;22;20091;-82
2024/01/20 10:42:44;;;;;;;32.97;12.57;;;;;;;;;;5260340;22;20029;-81
2024/01/20 10:44:51;;;;;;;31.52;11.02;;;;;;;;;;5233347;22;20019;-81
2024/01/20 10:47:11;;;;;;;23.90;9.20;;;;;;;;;;5259842;22;20066;-81
2024/01/20 10:49:22;;;;;;;32.83;12.05;;;;;;;;;;5234508;22;20015;-82
2024/01/20 10:51:31;;;;;;;26.58;9.27;;;;;;;;;;5233087;22;20015;-82
2024/01/20 10:53:34;;;;;;;;;;;;;;;;;;5207500;22;20075;-81
2024/01/20 10:55:39;;;;;;;25.27;10.70;;;;;;;;;;5232315;22;19936;-81
2024/01/20 10:57:44;;;;;;;28.17;9.95;;;;;;;;;;5206558;22;20020;-81
2024/01/20 10:59:50;;;;;;;27.35;10.43;;;;;;;;;;5233475;22;20019;-82
2024/01/20 11:01:57;;;;;;;31.02;10.48;;;;;;;;;;5232790;22;20026;-81
2024/01/20 11:03:59;;;;;;;23.25;9.75;;;;;;;;;;5206766;22;20481;-82
2024/01/20 11:06:03;;;;;;;29.13;10.77;;;;;;;;;;5206331;22;20047;-82
2024/01/20 11:08:07;;;;;;;30.27;11.07;;;;;;;;;;5231920;22;20063;-82
2024/01/20 11:10:22;;;;;;;25.75;11.48;;;;;;;;;;5232277;22;20023;-82
2024/01/20 11:12:25;;;;;;;30.58;11.23;;;;;;;;;;5204706;22;20016;-82
2024/01/20 11:14:35;;;;;;;27.90;10.90;;;;;;;;;;5230519;22;20019;-82
2024/01/20 11:16:40;;;;;;;32.28;12.98;;;;;;;;;;5258881;22;20015;-81
2024/01/20 11:18:41;;;;;;;28.98;10.68;;;;;;;;;;5259912;22;20345;-81
2024/01/20 11:21:03;;;;;;;33.10;12.18;;;;;;;;;;5231887;22;20044;-81
2024/01/20 11:23:18;;;;;;;29.17;10.98;;;;;;;;;;5231994;22;20023;-81
2024/01/20 11:25:23;;;;;;;27.52;10.50;;;;;;;;;;5231836;22;20091;-81
2024/01/20 11:27:26;;;;;;;30.83;11.40;;;;;;;;;;5259658;22;20015;-81
2024/01/20 11:29:33;;;;;;;26.05;10.38;;;;;;;;;;5206015;22;20023;-81
2024/01/20 11:31:36;;;;;;;29.42;10.63;;;;;;;;;;5210307;22;20020;-81
2024/01/20 11:33:38;;;;;;;29.08;10.88;;;;;;;;;;5213700;22;20019;-81
2024/01/20 11:35:42;;;;;;;28.20;10.05;;;;;;;;;;5235104;22;20023;-81
2024/01/20 11:37:43;;;;;;;28.63;12.00;;;;;;;;;;5262948;22;20029;-81
2024/01/20 11:40:03;;;;;;;28.85;11.32;;;;;;;;;;5234429;22;20070;-81
2024/01/20 11:42:05;;;;;;;29.20;10.93;;;;;;;;;;5208919;22;20095;-82
2024/01/20 11:44:20;;;;;;;29.50;11.30;;;;;;;;;;5207445;22;20047;-81
2024/01/20 11:46:23;;;;;;;28.70;11.88;;;;;;;;;;5262071;22;20015;-82
2024/01/20 11:48:43;;;;;;;36.13;12.70;;;;;;;;;;5259976;22;20434;-81
2024/01/20 11:50:44;;;;;;;32.17;10.38;;;;;;;;;;5205862;22;20075;-81
2024/01/20 11:52:45;;;;;;;34.03;12.75;;;;;;;;;;5232083;22;20037;-81
2024/01/20 11:54:47;;;;;;;30.35;11.65;;;;;;;;;;5231223;22;20023;-82
2024/01/20 11:57:08;;;;;;;26.38;9.77;;;;;;;;;;5258470;22;20017;-82
2024/01/20 11:59:14;;;;;;;29.48;12.57;;;;;;;;;;5232262;22;20539;-81
2024/01/20 12:01:16;;;;;;;26.55;10.90;;;;;;;;;;5231701;22;20019;-81
2024/01/20 12:03:20;;;;;;;30.88;12.30;;;;;;;;;;5260848;22;20449;-81
2024/01/20 12:05:23;;;;;;;31.50;12.45;;;;;;;;;;5207625;22;20440;-81
2024/01/20 12:07:24;;;;;;;35.90;12.48;;;;;;;;;;5210082;22;20027;-81
2024/01/20 12:09:28;;;;;;;31.67;12.48;;;;;;;;;;5234622;22;20027;-81
2024/01/20 12:11:32;;;;;;;32.63;11.75;;;;;;;;;;5235561;22;20069;-81
2024/01/20 12:13:36;;;;;;;31.75;11.60;;;;;;;;;;5241669;22;20027;-82
2024/01/20 12:15:37;;;;;;;28.05;12.05;;;;;;;;;;5214437;22;20023;-82
2024/01/20 12:17:39;;;;;;;27.83;11.15;;;;;;;;;;5211605;22;20020;-81
2024/01/20 12:19:50;;;;;;;30.25;11.40;;;;;;;;;;5213896;22;20038;-81
2024/01/20 12:21:54;;;;;;;33.70;13.60;;;;;;;;;;5216115;22;20006;-81
2024/01/20 12:23:57;;;;;;;27.30;11.82;;;;;;;;;;5215378;22;20023;-82
2024/01/20 12:25:59;;;;;;;25.92;10.90;;;;;;;;;;5214807;22;20024;-82
2024/01/20 12:28:12;;;;;;;34.15;13.00;;;;;;;;;;5212046;22;20019;-81
2024/01/20 12:30:13;;;;;;;36.92;13.20;;;;;;;;;;5210309;22;20047;-82
2024/01/20 12:32:17;;;;;;;34.30;14.10;;;;;;;;;;5210228;22;20015;-82
2024/01/20 12:34:20;;;;;;;28.20;11.98;;;;;;;;;;5210969;22;20016;-82